createdAt,value
2023-01-09T00:01:43.606Z,6.03
2023-01-09T00:03:51.937Z,6.08
2023-01-09T00:06:01.921Z,6.14
2023-01-09T00:08:10.563Z,6.10
2023-01-09T00:10:21.108Z,6.11
2023-01-09T00:12:29.033Z,6.13
2023-01-09T00:14:36.861Z,6.14
2023-01-09T00:16:44.946Z,6.17
2023-01-09T00:18:53.439Z,6.19
2023-01-09T00:21:02.967Z,6.19
2023-01-09T00:23:10.793Z,6.23
2023-01-09T00:25:23.196Z,6.24
2023-01-09T00:27:33.688Z,6.28
2023-01-09T00:29:41.904Z,6.19
2023-01-09T00:31:49.663Z,6.28
2023-01-09T00:34:03.055Z,6.24
2023-01-09T00:36:11.972Z,6.20
2023-01-09T00:38:20.022Z,6.21
2023-01-09T00:40:31.273Z,6.23
2023-01-09T00:42:40.390Z,6.19
2023-01-09T00:44:52.121Z,6.21
2023-01-09T00:47:04.392Z,6.19
2023-01-09T00:49:13.198Z,6.27
2023-01-09T00:51:22.642Z,6.29
2023-01-09T00:53:34.435Z,6.38
2023-01-09T00:55:45.094Z,6.36
2023-01-09T00:57:53.015Z,6.33
2023-01-09T01:00:03.048Z,6.31
2023-01-09T01:02:11.636Z,6.35
2023-01-09T01:04:32.247Z,6.35
2023-01-09T01:06:54.375Z,6.35
2023-01-09T01:09:02.189Z,6.37
2023-01-09T01:11:13.562Z,6.39
2023-01-09T01:13:21.771Z,6.42
2023-01-09T01:15:29.756Z,6.44
2023-01-09T01:17:40.261Z,6.39
2023-01-09T01:19:48.622Z,6.40
2023-01-09T01:21:56.634Z,6.39
2023-01-09T01:24:04.751Z,6.39
2023-01-09T01:26:17.354Z,6.44
2023-01-09T01:28:25.562Z,6.59
2023-01-09T01:30:33.459Z,6.47
2023-01-09T01:32:41.584Z,6.54
2023-01-09T01:34:50.022Z,6.49
2023-01-09T01:36:57.919Z,6.42
2023-01-09T01:39:06.826Z,6.52
2023-01-09T01:41:29.603Z,6.47
2023-01-09T01:43:53.203Z,6.55
2023-01-09T01:46:01.643Z,6.57
2023-01-09T01:48:12.595Z,6.56
2023-01-09T01:50:30.261Z,6.56
2023-01-09T01:52:41.608Z,6.49
2023-01-09T01:55:01.412Z,6.60
2023-01-09T01:57:12.862Z,6.51
2023-01-09T01:59:25.784Z,6.46
2023-01-09T02:01:33.973Z,6.48
2023-01-09T02:03:44.681Z,6.39
2023-01-09T02:05:52.928Z,6.33
2023-01-09T02:08:00.823Z,6.22
2023-01-09T02:10:11.908Z,6.30
2023-01-09T02:12:25.699Z,6.40
2023-01-09T02:14:37.929Z,6.32
2023-01-09T02:16:54.474Z,6.41
2023-01-09T02:19:09.907Z,6.54
2023-01-09T02:21:27.592Z,6.48
2023-01-09T02:24:10.801Z,6.47
2023-01-09T02:26:37.908Z,6.40
2023-01-09T02:29:19.131Z,6.54
2023-01-09T02:31:36.019Z,6.49
2023-01-09T02:33:56.626Z,6.38
2023-01-09T02:36:14.229Z,6.38
2023-01-09T02:38:29.846Z,6.50
2023-01-09T02:40:43.255Z,6.44
2023-01-09T02:42:51.945Z,6.40
2023-01-09T02:45:00.246Z,6.56
2023-01-09T02:47:31.967Z,6.38
2023-01-09T02:49:43.327Z,6.33
2023-01-09T02:51:55.759Z,6.39
2023-01-09T02:54:21.186Z,6.40
2023-01-09T02:57:10.261Z,6.47
2023-01-09T02:59:28.955Z,6.44
2023-01-09T03:01:48.607Z,6.47
2023-01-09T03:04:05.188Z,6.48
2023-01-09T03:06:25.483Z,6.41
2023-01-09T03:08:43.072Z,6.34
2023-01-09T03:10:58.521Z,6.37
2023-01-09T03:13:08.372Z,6.42
2023-01-09T03:15:18.432Z,6.37
2023-01-09T03:17:34.093Z,6.43
2023-01-09T03:19:44.553Z,6.37
2023-01-09T03:21:57.823Z,6.38
2023-01-09T03:24:07.522Z,6.42
2023-01-09T03:26:15.577Z,6.33
2023-01-09T03:28:29.424Z,6.40
2023-01-09T03:30:38.896Z,6.31
2023-01-09T03:32:46.602Z,6.30
2023-01-09T03:34:54.909Z,6.19
2023-01-09T03:37:05.296Z,6.13
2023-01-09T03:39:13.384Z,6.14
2023-01-09T03:41:22.205Z,6.08
2023-01-09T03:43:30.031Z,5.95
2023-01-09T03:45:37.789Z,5.87
2023-01-09T03:47:45.542Z,5.90
2023-01-09T03:49:53.265Z,6.06
2023-01-09T03:52:01.072Z,6.17
2023-01-09T03:54:13.755Z,6.02
2023-01-09T03:56:21.516Z,6.03
2023-01-09T03:58:30.157Z,6.00
2023-01-09T04:00:39.315Z,5.96
2023-01-09T04:02:47.389Z,5.93
2023-01-09T04:04:55.834Z,5.99
2023-01-09T04:07:03.943Z,5.93
2023-01-09T04:09:14.783Z,5.92
2023-01-09T04:11:22.657Z,5.97
2023-01-09T04:13:30.678Z,6.09
2023-01-09T04:15:38.615Z,6.12
2023-01-09T04:17:46.456Z,6.08
2023-01-09T04:19:54.561Z,6.10
2023-01-09T04:22:02.571Z,6.41
2023-01-09T04:24:14.254Z,6.47
2023-01-09T04:26:24.746Z,6.41
2023-01-09T04:28:33.303Z,6.21
2023-01-09T04:30:41.140Z,6.21
2023-01-09T04:32:50.639Z,6.14
2023-01-09T04:34:58.585Z,6.12
2023-01-09T04:37:08.202Z,6.17
2023-01-09T04:39:18.706Z,6.15
2023-01-09T04:41:41.087Z,6.19
2023-01-09T04:43:48.990Z,6.12
2023-01-09T04:45:56.885Z,6.10
2023-01-09T04:48:04.782Z,6.04
2023-01-09T04:50:16.962Z,5.86
2023-01-09T04:52:25.063Z,5.83
2023-01-09T04:54:36.042Z,5.69
2023-01-09T04:56:43.904Z,5.65
2023-01-09T04:58:51.746Z,5.38
2023-01-09T05:00:59.851Z,5.37
2023-01-09T05:03:07.938Z,5.42
2023-01-09T05:05:16.884Z,5.41
2023-01-09T05:07:24.899Z,5.23
2023-01-09T05:09:36.241Z,5.24
2023-01-09T05:11:44.148Z,5.36
2023-01-09T05:13:52.208Z,5.17
2023-01-09T05:16:00.143Z,5.12
2023-01-09T05:18:08.489Z,5.10
2023-01-09T05:20:16.448Z,5.09
2023-01-09T05:22:24.679Z,5.22
2023-01-09T05:24:35.161Z,5.11
2023-01-09T05:26:43.532Z,5.12
2023-01-09T05:28:51.223Z,5.01
2023-01-09T05:30:59.115Z,4.96
2023-01-09T05:33:07.173Z,4.93
2023-01-09T05:35:15.051Z,4.92
2023-01-09T05:37:23.178Z,4.86
2023-01-09T05:39:31.155Z,4.76
2023-01-09T05:41:41.756Z,4.69
2023-01-09T05:43:49.740Z,4.81
2023-01-09T05:45:57.547Z,4.76
2023-01-09T05:48:05.550Z,4.56
2023-01-09T05:50:14.985Z,4.45
2023-01-09T05:52:23.243Z,4.45
2023-01-09T05:54:31.241Z,4.44
2023-01-09T05:56:42.822Z,4.17
2023-01-09T05:58:50.940Z,4.20
2023-01-09T06:00:58.913Z,4.08
2023-01-09T06:03:06.960Z,3.99
2023-01-09T06:05:14.932Z,3.87
2023-01-09T06:07:23.547Z,3.83
2023-01-09T06:09:31.532Z,3.93
2023-01-09T06:11:42.027Z,4.02
2023-01-09T06:13:50.009Z,3.81
2023-01-09T06:15:58.024Z,3.72
2023-01-09T06:18:06.216Z,3.69
2023-01-09T06:20:17.147Z,3.74
2023-01-09T06:22:24.993Z,3.63
2023-01-09T06:24:33.057Z,3.63
2023-01-09T06:26:46.548Z,3.55
2023-01-09T06:28:56.041Z,3.52
2023-01-09T06:31:04.259Z,3.43
2023-01-09T06:33:12.457Z,3.38
2023-01-09T06:35:22.519Z,3.36
2023-01-09T06:37:30.502Z,3.26
2023-01-09T06:39:38.694Z,3.30
2023-01-09T06:41:49.361Z,3.25
2023-01-09T06:43:57.267Z,3.32
2023-01-09T06:46:05.823Z,3.49
2023-01-09T06:48:14.079Z,3.51
2023-01-09T06:50:22.294Z,3.55
2023-01-09T06:52:30.094Z,3.56
2023-01-09T06:54:38.476Z,3.44
2023-01-09T06:56:49.395Z,3.40
2023-01-09T06:58:57.249Z,3.42
2023-01-09T07:01:05.457Z,3.37
2023-01-09T07:03:19.698Z,3.28
2023-01-09T07:05:27.798Z,3.29
2023-01-09T07:07:35.655Z,3.26
2023-01-09T07:09:43.874Z,3.21
2023-01-09T07:11:54.312Z,3.32
2023-01-09T07:14:02.426Z,3.30
2023-01-09T07:16:11.542Z,3.54
2023-01-09T07:18:19.325Z,3.65
2023-01-09T07:20:27.607Z,3.62
2023-01-09T07:22:35.733Z,3.76
2023-01-09T07:24:44.533Z,3.82
2023-01-09T07:26:55.040Z,3.76
2023-01-09T07:29:03.162Z,3.78
2023-01-09T07:31:11.874Z,3.73
2023-01-09T07:33:19.844Z,3.70
2023-01-09T07:35:28.048Z,3.71
2023-01-09T07:37:36.119Z,3.70
2023-01-09T07:39:44.303Z,3.85
2023-01-09T07:41:54.783Z,3.84
2023-01-09T07:44:02.675Z,3.85
2023-01-09T07:46:10.650Z,4.05
2023-01-09T07:48:18.607Z,4.02
2023-01-09T07:50:26.480Z,4.08
2023-01-09T07:52:34.244Z,3.95
2023-01-09T07:54:42.211Z,4.01
2023-01-09T07:56:50.168Z,4.06
2023-01-09T07:59:00.733Z,4.12
2023-01-09T08:01:09.091Z,4.05
2023-01-09T08:03:16.938Z,4.12
2023-01-09T08:05:25.271Z,4.20
2023-01-09T08:07:33.286Z,4.25
2023-01-09T08:09:41.192Z,4.13
2023-01-09T08:11:49.088Z,4.14
2023-01-09T08:13:56.979Z,4.08
2023-01-09T08:16:08.815Z,4.14
2023-01-09T08:18:19.400Z,4.03
2023-01-09T08:20:27.657Z,4.15
2023-01-09T08:22:35.878Z,4.22
2023-01-09T08:24:43.765Z,4.17
2023-01-09T08:26:51.700Z,4.18
2023-01-09T08:28:59.553Z,4.21
2023-01-09T08:31:09.992Z,4.14
2023-01-09T08:33:18.263Z,3.96
2023-01-09T08:35:26.452Z,3.89
2023-01-09T08:37:34.211Z,3.96
2023-01-09T08:39:42.116Z,3.83
2023-01-09T08:42:02.379Z,3.90
2023-01-09T08:44:22.950Z,3.99
2023-01-09T08:47:00.803Z,3.97
2023-01-09T08:49:08.674Z,3.98
2023-01-09T08:51:17.285Z,3.94
2023-01-09T08:53:25.374Z,4.05
2023-01-09T08:55:33.298Z,4.22
2023-01-09T08:57:41.045Z,4.21
2023-01-09T08:59:49.026Z,4.26
2023-01-09T09:01:59.593Z,4.25
2023-01-09T09:04:07.843Z,4.26
2023-01-09T09:06:15.757Z,4.33
2023-01-09T09:08:23.658Z,4.34
2023-01-09T09:10:32.413Z,4.47
2023-01-09T09:12:40.338Z,4.52
2023-01-09T09:15:00.595Z,4.50
2023-01-09T09:17:13.765Z,4.57
2023-01-09T09:19:21.859Z,5.04
2023-01-09T09:21:29.818Z,6.88
2023-01-09T09:23:37.727Z,8.58
2023-01-09T09:25:45.536Z,9.80
2023-01-09T09:27:56.038Z,10.59
2023-01-09T09:30:03.840Z,10.81
2023-01-09T09:32:14.287Z,11.62
2023-01-09T09:34:22.724Z,12.55
2023-01-09T09:36:32.507Z,13.16
2023-01-09T09:38:40.300Z,13.53
2023-01-09T09:41:38.371Z,14.64
2023-01-09T09:44:17.338Z,13.45
2023-01-09T09:46:36.207Z,13.93
2023-01-09T09:48:53.279Z,13.95
2023-01-09T09:51:26.220Z,12.31
2023-01-09T09:53:39.521Z,10.39
2023-01-09T09:55:49.584Z,10.03
2023-01-09T09:57:59.707Z,9.97
2023-01-09T10:00:10.039Z,9.28
2023-01-09T10:02:33.508Z,9.01
2023-01-09T10:04:51.841Z,9.13
2023-01-09T10:07:06.170Z,8.80
2023-01-09T10:09:30.608Z,8.45
2023-01-09T10:11:55.630Z,8.37
2023-01-09T10:14:22.787Z,8.29
2023-01-09T10:16:47.014Z,7.85
2023-01-09T10:19:08.427Z,7.38
2023-01-09T10:21:33.646Z,7.17
2023-01-09T10:24:01.223Z,6.97
2023-01-09T10:26:14.929Z,7.12
2023-01-09T10:28:37.679Z,6.92
2023-01-09T10:30:50.026Z,7.00
2023-01-09T10:33:09.482Z,7.03
2023-01-09T10:35:48.304Z,7.28
2023-01-09T10:38:03.249Z,7.38
2023-01-09T10:40:20.979Z,7.64
2023-01-09T10:42:35.356Z,7.58
2023-01-09T10:44:50.910Z,7.47
2023-01-09T10:47:00.829Z,7.61
2023-01-09T10:49:15.610Z,7.84
2023-01-09T10:51:27.127Z,7.72
2023-01-09T10:53:42.413Z,7.70
2023-01-09T10:55:51.662Z,7.79
2023-01-09T10:58:04.379Z,7.79
2023-01-09T11:00:23.074Z,8.07
2023-01-09T11:02:35.120Z,8.07
2023-01-09T11:04:43.629Z,7.89
2023-01-09T11:06:55.647Z,7.95
2023-01-09T11:09:08.267Z,7.90
2023-01-09T11:11:33.511Z,7.78
2023-01-09T11:13:47.304Z,7.51
2023-01-09T11:16:09.387Z,7.40
2023-01-09T11:18:24.641Z,7.47
2023-01-09T11:20:33.578Z,7.53
2023-01-09T11:22:47.579Z,7.42
2023-01-09T11:25:03.787Z,7.53
2023-01-09T11:27:27.846Z,7.47
2023-01-09T11:29:35.858Z,7.56
2023-01-09T11:31:44.798Z,7.65
2023-01-09T11:33:52.863Z,7.64
2023-01-09T11:36:04.808Z,7.46
2023-01-09T11:38:19.345Z,7.54
2023-01-09T11:40:30.901Z,7.48
2023-01-09T11:42:51.459Z,7.66
2023-01-09T11:45:01.968Z,7.83
2023-01-09T11:47:27.880Z,7.68
2023-01-09T11:49:35.930Z,7.84
2023-01-09T11:51:45.094Z,7.81
2023-01-09T11:54:03.584Z,8.00
2023-01-09T11:56:17.441Z,8.10
2023-01-09T11:58:26.476Z,8.21
2023-01-09T12:00:47.205Z,8.30
2023-01-09T12:03:08.049Z,8.19
2023-01-09T12:05:25.455Z,8.33
2023-01-09T12:07:50.012Z,8.31
2023-01-09T12:10:06.023Z,8.18
2023-01-09T12:12:29.379Z,8.30
2023-01-09T12:14:51.625Z,8.32
2023-01-09T12:17:15.633Z,8.40
2023-01-09T12:19:51.595Z,8.15
2023-01-09T12:22:11.657Z,7.87
2023-01-09T12:24:53.347Z,8.01
2023-01-09T12:27:17.366Z,8.05
2023-01-09T12:29:54.189Z,8.06
2023-01-09T12:32:22.489Z,7.94
2023-01-09T12:34:45.687Z,8.00
2023-01-09T12:37:00.481Z,7.97
2023-01-09T12:39:19.815Z,7.74
2023-01-09T12:41:46.771Z,7.74
2023-01-09T12:44:08.859Z,7.91
2023-01-09T12:46:23.262Z,7.86
2023-01-09T12:48:59.353Z,7.92
2023-01-09T12:51:38.894Z,7.88
2023-01-09T12:53:52.277Z,7.81
2023-01-09T12:56:06.897Z,7.90
2023-01-09T12:58:23.099Z,7.74
2023-01-09T13:00:35.733Z,7.71
2023-01-09T13:03:00.398Z,7.68
2023-01-09T13:05:19.319Z,7.77
2023-01-09T13:07:31.785Z,7.88
2023-01-09T13:09:47.881Z,7.79
2023-01-09T13:12:07.638Z,7.95
2023-01-09T13:14:23.080Z,7.83
2023-01-09T13:16:36.567Z,7.80
2023-01-09T13:18:52.786Z,7.64
2023-01-09T13:21:01.521Z,7.53
2023-01-09T13:23:10.376Z,7.63
2023-01-09T13:25:38.311Z,7.28
2023-01-09T13:27:54.656Z,7.20
2023-01-09T13:30:11.375Z,6.92
2023-01-09T13:32:38.331Z,6.90
2023-01-09T13:34:57.464Z,6.84
2023-01-09T13:37:06.095Z,6.78
2023-01-09T13:39:26.158Z,6.66
2023-01-09T13:41:47.614Z,6.56
2023-01-09T13:43:58.217Z,6.60
2023-01-09T13:46:06.651Z,6.61
2023-01-09T13:48:29.698Z,6.67
2023-01-09T13:50:41.760Z,6.67
2023-01-09T13:52:49.788Z,6.69
2023-01-09T13:55:25.174Z,6.78
2023-01-09T13:57:36.077Z,6.83
2023-01-09T13:59:45.033Z,6.65
2023-01-09T14:01:53.116Z,6.68
2023-01-09T14:04:30.694Z,6.48
2023-01-09T14:06:41.868Z,6.50
2023-01-09T14:08:52.319Z,6.38
2023-01-09T14:11:02.862Z,6.46
2023-01-09T14:13:17.987Z,6.47
2023-01-09T14:15:30.617Z,6.45
2023-01-09T14:17:40.715Z,6.45
2023-01-09T14:19:49.264Z,6.39
2023-01-09T14:22:01.445Z,6.30
2023-01-09T14:24:10.126Z,6.51
2023-01-09T14:26:22.135Z,6.37
2023-01-09T14:28:31.497Z,6.54
2023-01-09T14:30:41.864Z,6.45
2023-01-09T14:32:59.942Z,6.58
2023-01-09T14:35:17.114Z,6.54
2023-01-09T14:37:30.227Z,6.67
2023-01-09T14:39:39.070Z,6.52
2023-01-09T14:42:05.864Z,6.52
2023-01-09T14:44:28.810Z,6.36
2023-01-09T14:46:42.566Z,6.17
2023-01-09T14:49:06.741Z,6.03
2023-01-09T14:51:19.177Z,5.87
2023-01-09T14:53:33.615Z,5.72
2023-01-09T14:55:51.772Z,5.76
2023-01-09T14:58:13.480Z,5.54
2023-01-09T15:00:22.410Z,5.40
2023-01-09T15:02:33.861Z,5.30
2023-01-09T15:04:46.102Z,5.09
2023-01-09T15:06:54.721Z,5.07
2023-01-09T15:09:07.456Z,5.32
2023-01-09T15:11:16.667Z,5.38
2023-01-09T15:13:34.400Z,5.27
2023-01-09T15:15:47.895Z,5.39
2023-01-09T15:17:59.790Z,5.37
2023-01-09T15:20:09.682Z,5.38
2023-01-09T15:22:26.247Z,5.42
2023-01-09T15:24:37.676Z,5.77
2023-01-09T15:26:54.239Z,5.61
2023-01-09T15:29:05.557Z,5.63
2023-01-09T15:31:18.241Z,5.80
2023-01-09T15:33:26.552Z,5.59
2023-01-09T15:35:36.387Z,5.64
2023-01-09T15:37:47.463Z,5.68
2023-01-09T15:40:00.315Z,5.66
2023-01-09T15:42:33.928Z,5.62
2023-01-09T15:44:44.454Z,5.62
2023-01-09T15:46:53.942Z,5.78
2023-01-09T15:49:03.047Z,5.74
2023-01-09T15:51:14.579Z,5.71
2023-01-09T15:53:25.695Z,5.81
2023-01-09T15:55:38.676Z,5.73
2023-01-09T15:57:55.101Z,5.52
2023-01-09T16:00:45.575Z,5.71
2023-01-09T16:03:06.118Z,5.66
2023-01-09T16:05:16.966Z,5.44
2023-01-09T16:07:24.944Z,5.56
2023-01-09T16:09:37.951Z,5.51
2023-01-09T16:11:52.289Z,5.56
2023-01-09T16:14:04.887Z,5.36
2023-01-09T16:16:14.010Z,5.33
2023-01-09T16:18:31.917Z,5.32
2023-01-09T16:20:40.709Z,5.23
2023-01-09T16:22:56.227Z,5.28
2023-01-09T16:25:23.995Z,5.18
2023-01-09T16:27:36.153Z,5.10
2023-01-09T16:29:50.081Z,4.96
2023-01-09T16:32:05.761Z,4.94
2023-01-09T16:34:15.942Z,4.97
2023-01-09T16:36:24.148Z,4.77
2023-01-09T16:38:32.419Z,4.92
2023-01-09T16:40:40.540Z,4.81
2023-01-09T16:43:03.746Z,4.82
2023-01-09T16:45:12.968Z,4.79
2023-01-09T16:47:21.146Z,4.90
2023-01-09T16:49:29.875Z,4.97
2023-01-09T16:51:37.834Z,4.93
2023-01-09T16:53:46.532Z,4.87
2023-01-09T16:55:56.639Z,4.94
2023-01-09T16:58:18.621Z,4.85
2023-01-09T17:00:26.943Z,4.76
2023-01-09T17:02:36.519Z,4.78
2023-01-09T17:04:44.494Z,4.89
2023-01-09T17:06:53.787Z,4.79
2023-01-09T17:09:01.914Z,4.77
2023-01-09T17:11:14.371Z,4.87
2023-01-09T17:13:25.733Z,4.82
2023-01-09T17:15:33.921Z,4.92
2023-01-09T17:17:41.897Z,4.91
2023-01-09T17:19:49.862Z,4.81
2023-01-09T17:21:57.786Z,4.76
2023-01-09T17:24:18.357Z,4.81
2023-01-09T17:26:40.808Z,4.67
2023-01-09T17:28:53.657Z,4.65
2023-01-09T17:31:01.846Z,4.61
2023-01-09T17:33:17.400Z,4.73
2023-01-09T17:35:25.751Z,4.57
2023-01-09T17:37:33.995Z,4.56
2023-01-09T17:39:42.039Z,4.53
2023-01-09T17:41:50.281Z,4.53
2023-01-09T17:44:05.759Z,4.45
2023-01-09T17:46:18.704Z,4.40
2023-01-09T17:48:26.609Z,4.44
2023-01-09T17:50:36.457Z,4.36
2023-01-09T17:52:44.459Z,4.37
2023-01-09T17:54:52.241Z,4.40
2023-01-09T17:57:00.164Z,4.47
2023-01-09T17:59:14.222Z,4.52
2023-01-09T18:01:22.924Z,4.43
2023-01-09T18:03:33.604Z,4.40
2023-01-09T18:05:42.587Z,4.46
2023-01-09T18:07:51.009Z,4.33
2023-01-09T18:09:59.081Z,4.54
2023-01-09T18:12:07.312Z,4.44
2023-01-09T18:14:18.366Z,4.37
2023-01-09T18:16:28.018Z,4.35
2023-01-09T18:18:36.206Z,4.28
2023-01-09T18:20:45.266Z,4.45
2023-01-09T18:22:54.170Z,4.42
2023-01-09T18:25:02.236Z,4.52
2023-01-09T18:27:10.347Z,4.58
2023-01-09T18:29:21.491Z,4.49
2023-01-09T18:31:31.385Z,4.56
2023-01-09T18:33:39.321Z,4.58
2023-01-09T18:35:48.017Z,4.57
2023-01-09T18:37:56.184Z,4.55
2023-01-09T18:40:04.230Z,4.56
2023-01-09T18:42:12.459Z,4.55
2023-01-09T18:44:23.882Z,4.43
2023-01-09T18:46:42.266Z,4.53
2023-01-09T18:48:54.979Z,4.49
2023-01-09T18:51:08.046Z,4.51
2023-01-09T18:53:15.997Z,4.26
2023-01-09T18:55:25.039Z,4.39
2023-01-09T18:57:33.159Z,4.48
2023-01-09T18:59:43.575Z,4.36
2023-01-09T19:01:51.533Z,4.42
2023-01-09T19:04:02.493Z,4.32
2023-01-09T19:06:11.240Z,4.35
2023-01-09T19:08:21.430Z,4.36
2023-01-09T19:10:31.199Z,4.50
2023-01-09T19:12:39.202Z,4.39
2023-01-09T19:14:49.797Z,4.25
2023-01-09T19:17:01.440Z,4.19
2023-01-09T19:19:09.611Z,4.21
2023-01-09T19:21:22.927Z,4.33
2023-01-09T19:23:32.149Z,4.17
2023-01-09T19:25:41.489Z,4.26
2023-01-09T19:27:49.561Z,4.13
2023-01-09T19:30:01.795Z,4.15
2023-01-09T19:32:09.844Z,4.16
2023-01-09T19:34:19.038Z,4.12
2023-01-09T19:36:27.040Z,4.18
2023-01-09T19:38:34.912Z,4.31
2023-01-09T19:40:43.136Z,4.23
2023-01-09T19:42:51.362Z,4.27
2023-01-09T19:45:02.229Z,4.18
2023-01-09T19:47:10.942Z,4.29
2023-01-09T19:49:19.116Z,4.26
2023-01-09T19:51:28.358Z,4.19
2023-01-09T19:53:41.830Z,4.37
2023-01-09T19:55:49.671Z,4.24
2023-01-09T19:57:58.143Z,4.10
2023-01-09T20:00:09.738Z,4.08
2023-01-09T20:04:30.099Z,4.02
2023-01-09T20:06:40.789Z,4.06
2023-01-09T20:08:53.731Z,4.07
2023-01-09T20:11:06.664Z,4.07
2023-01-09T20:13:14.697Z,4.21
2023-01-09T20:15:25.343Z,4.09
2023-01-09T20:17:35.398Z,4.01
2023-01-09T20:19:45.577Z,4.09
2023-01-09T20:21:54.401Z,3.91
2023-01-09T20:24:05.001Z,4.06
2023-01-09T20:26:12.825Z,3.97
2023-01-09T20:28:22.261Z,3.94
2023-01-09T20:30:34.623Z,4.05
2023-01-09T20:32:45.829Z,3.98
2023-01-09T20:34:53.561Z,3.85
2023-01-09T20:37:02.643Z,3.81
2023-01-09T20:39:12.528Z,3.90
2023-01-09T20:41:26.236Z,3.90
2023-01-09T20:43:34.022Z,3.99
2023-01-09T20:45:44.511Z,3.87
2023-01-09T20:47:52.343Z,3.80
2023-01-09T20:50:00.303Z,3.71
2023-01-09T20:52:08.158Z,3.65
2023-01-09T20:54:18.254Z,3.79
2023-01-09T20:56:27.572Z,3.86
2023-01-09T20:58:36.185Z,3.96
2023-01-09T21:00:46.930Z,3.86
2023-01-09T21:02:55.155Z,3.73
2023-01-09T21:05:03.099Z,3.79
2023-01-09T21:07:11.183Z,3.77
2023-01-09T21:09:19.003Z,3.74
2023-01-09T21:11:28.277Z,3.70
2023-01-09T21:13:38.415Z,3.96
2023-01-09T21:15:49.063Z,3.78
2023-01-09T21:17:56.941Z,3.85
2023-01-09T21:20:05.890Z,3.87
2023-01-09T21:22:14.053Z,3.82
2023-01-09T21:24:21.897Z,3.90
2023-01-09T21:26:34.710Z,3.85
2023-01-09T21:28:49.111Z,3.91
2023-01-09T21:30:59.538Z,4.03
2023-01-09T21:33:09.805Z,4.03
2023-01-09T21:35:17.786Z,3.87
2023-01-09T21:37:25.611Z,3.89
2023-01-09T21:39:33.389Z,3.88
2023-01-09T21:41:53.573Z,3.86
2023-01-09T21:44:13.794Z,3.83
2023-01-09T21:46:51.589Z,3.92
2023-01-09T21:48:59.464Z,3.93
2023-01-09T21:51:07.749Z,3.94
2023-01-09T21:53:16.648Z,4.02
2023-01-09T21:55:27.374Z,4.05
2023-01-09T21:57:35.589Z,4.09
2023-01-09T21:59:48.365Z,4.07
2023-01-09T22:01:59.328Z,4.19
2023-01-09T22:04:07.757Z,4.15
2023-01-09T22:06:15.821Z,4.26
2023-01-09T22:08:23.882Z,4.29
2023-01-09T22:10:33.494Z,4.23
2023-01-09T22:13:01.904Z,4.39
2023-01-09T22:15:10.461Z,4.34
2023-01-09T22:17:21.123Z,4.31
2023-01-09T22:19:29.389Z,4.26
2023-01-09T22:21:37.532Z,4.25
2023-01-09T22:23:45.500Z,4.14
2023-01-09T22:25:53.612Z,4.14
2023-01-09T22:28:01.641Z,4.10
2023-01-09T22:30:11.181Z,4.23
2023-01-09T22:32:22.801Z,4.21
2023-01-09T22:34:31.098Z,4.26
2023-01-09T22:36:39.009Z,4.50
2023-01-09T22:38:47.219Z,4.31
2023-01-09T22:40:55.268Z,4.37
2023-01-09T22:43:03.497Z,4.39
2023-01-09T22:45:12.641Z,4.40
2023-01-09T22:47:23.229Z,4.41
2023-01-09T22:49:41.101Z,4.33
2023-01-09T22:51:59.819Z,4.24
2023-01-09T22:54:07.741Z,4.18
2023-01-09T22:56:17.809Z,4.33
2023-01-09T22:58:26.420Z,4.33
2023-01-09T23:00:36.182Z,4.21
2023-01-09T23:02:48.015Z,4.23
2023-01-09T23:04:58.468Z,4.17
2023-01-09T23:07:06.746Z,4.11
2023-01-09T23:09:14.997Z,4.42
2023-01-09T23:11:38.117Z,4.35
2023-01-09T23:13:46.067Z,4.41
2023-01-09T23:15:54.185Z,4.34
2023-01-09T23:18:05.226Z,4.23
2023-01-09T23:20:15.150Z,4.41
2023-01-09T23:22:26.092Z,4.37
2023-01-09T23:24:35.190Z,4.45
2023-01-09T23:26:43.897Z,4.45
2023-01-09T23:28:51.863Z,4.37
2023-01-09T23:30:59.848Z,4.40
2023-01-09T23:33:10.479Z,4.35
2023-01-09T23:35:19.149Z,4.33
2023-01-09T23:37:27.556Z,4.19
2023-01-09T23:39:35.429Z,4.34
2023-01-09T23:41:56.186Z,4.35
2023-01-09T23:44:04.575Z,4.09
2023-01-09T23:46:14.278Z,4.32
2023-01-09T23:48:25.515Z,4.28
2023-01-09T23:50:33.529Z,4.09
2023-01-09T23:52:41.586Z,4.10
2023-01-09T23:54:49.519Z,4.12
2023-01-09T23:56:58.205Z,4.06
2023-01-09T23:59:08.197Z,3.99
